sensor_id;sensor_type;location;lat;lon;timestamp;P1;P2;P0
47741;PMS5003;33504;52.066;6.096;2022-10-03T00:02:32;6;5;
47741;PMS5003;33504;52.066;6.096;2022-10-03T00:05:17;8;5;
47741;PMS5003;33504;52.066;6.096;2022-10-03T00:08:01;6;4;
47741;PMS5003;33504;52.066;6.096;2022-10-03T00:10:37;5;4;
47741;PMS5003;33504;52.066;6.096;2022-10-03T00:13:17;6;4;
47741;PMS5003;33504;52.066;6.096;2022-10-03T00:15:49;5;5;
47741;PMS5003;33504;52.066;6.096;2022-10-03T00:18:31;8;6;
47741;PMS5003;33504;52.066;6.096;2022-10-03T00:21:08;6;4;
47741;PMS5003;33504;52.066;6.096;2022-10-03T00:23:48;8;7;
47741;PMS5003;33504;52.066;6.096;2022-10-03T00:26:34;8;5;
47741;PMS5003;33504;52.066;6.096;2022-10-03T00:29:17;5;4;
47741;PMS5003;33504;52.066;6.096;2022-10-03T00:31:54;6;5;
47741;PMS5003;33504;52.066;6.096;2022-10-03T00:34:32;5;5;
47741;PMS5003;33504;52.066;6.096;2022-10-03T00:37:16;7;4;
47741;PMS5003;33504;52.066;6.096;2022-10-03T00:39:53;6;6;
47741;PMS5003;33504;52.066;6.096;2022-10-03T00:46:13;6;5;
47741;PMS5003;33504;52.066;6.096;2022-10-03T00:49:05;5;5;
47741;PMS5003;33504;52.066;6.096;2022-10-03T00:51:53;7;4;
47741;PMS5003;33504;52.066;6.096;2022-10-03T00:54:32;5;4;
47741;PMS5003;33504;52.066;6.096;2022-10-03T00:57:11;6;4;
47741;PMS5003;33504;52.066;6.096;2022-10-03T01:00:00;5;4;
47741;PMS5003;33504;52.066;6.096;2022-10-03T01:02:36;5;4;
47741;PMS5003;33504;52.066;6.096;2022-10-03T01:05:15;5;4;
47741;PMS5003;33504;52.066;6.096;2022-10-03T01:08:03;5;5;
47741;PMS5003;33504;52.066;6.096;2022-10-03T01:10:49;4;4;
47741;PMS5003;33504;52.066;6.096;2022-10-03T01:13:28;7;6;
47741;PMS5003;33504;52.066;6.096;2022-10-03T01:16:06;6;6;
47741;PMS5003;33504;52.066;6.096;2022-10-03T01:18:43;4;4;
47741;PMS5003;33504;52.066;6.096;2022-10-03T01:21:20;5;4;
47741;PMS5003;33504;52.066;6.096;2022-10-03T01:24:11;5;4;
47741;PMS5003;33504;52.066;6.096;2022-10-03T01:26:59;6;5;
47741;PMS5003;33504;52.066;6.096;2022-10-03T01:29:34;6;5;
47741;PMS5003;33504;52.066;6.096;2022-10-03T01:32:07;6;5;
47741;PMS5003;33504;52.066;6.096;2022-10-03T01:34:41;7;4;
47741;PMS5003;33504;52.066;6.096;2022-10-03T01:37:14;5;4;
47741;PMS5003;33504;52.066;6.096;2022-10-03T01:39:49;4;4;
47741;PMS5003;33504;52.066;6.096;2022-10-03T01:42:28;5;4;
47741;PMS5003;33504;52.066;6.096;2022-10-03T01:45:07;5;5;
47741;PMS5003;33504;52.066;6.096;2022-10-03T01:47:42;4;3;
47741;PMS5003;33504;52.066;6.096;2022-10-03T01:50:15;4;4;
47741;PMS5003;33504;52.066;6.096;2022-10-03T01:52:51;2;2;
47741;PMS5003;33504;52.066;6.096;2022-10-03T01:55:27;4;3;
47741;PMS5003;33504;52.066;6.096;2022-10-03T01:58:04;5;5;
47741;PMS5003;33504;52.066;6.096;2022-10-03T02:00:35;9;6;
47741;PMS5003;33504;52.066;6.096;2022-10-03T02:03:15;4;3;
47741;PMS5003;33504;52.066;6.096;2022-10-03T02:05:53;7;7;
47741;PMS5003;33504;52.066;6.096;2022-10-03T02:08:32;3;3;
47741;PMS5003;33504;52.066;6.096;2022-10-03T02:11:10;6;5;
47741;PMS5003;33504;52.066;6.096;2022-10-03T02:13:53;5;4;
47741;PMS5003;33504;52.066;6.096;2022-10-03T02:16:28;5;4;
47741;PMS5003;33504;52.066;6.096;2022-10-03T02:19:07;5;5;
47741;PMS5003;33504;52.066;6.096;2022-10-03T02:21:45;5;4;
47741;PMS5003;33504;52.066;6.096;2022-10-03T02:24:20;4;4;
47741;PMS5003;33504;52.066;6.096;2022-10-03T02:27:38;7;5;
47741;PMS5003;33504;52.066;6.096;2022-10-03T02:30:19;7;5;
47741;PMS5003;33504;52.066;6.096;2022-10-03T02:33:02;7;5;
47741;PMS5003;33504;52.066;6.096;2022-10-03T02:35:55;4;3;
47741;PMS5003;33504;52.066;6.096;2022-10-03T02:38:52;5;3;
47741;PMS5003;33504;52.066;6.096;2022-10-03T02:41:40;5;4;
47741;PMS5003;33504;52.066;6.096;2022-10-03T02:44:41;4;4;
47741;PMS5003;33504;52.066;6.096;2022-10-03T02:47:25;5;4;
47741;PMS5003;33504;52.066;6.096;2022-10-03T02:50:27;5;5;
47741;PMS5003;33504;52.066;6.096;2022-10-03T02:53:14;7;6;
47741;PMS5003;33504;52.066;6.096;2022-10-03T02:56:11;4;4;
47741;PMS5003;33504;52.066;6.096;2022-10-03T02:58:58;6;5;
47741;PMS5003;33504;52.066;6.096;2022-10-03T02:59:43;6;5;
47741;PMS5003;33504;52.066;6.096;2022-10-03T03:02:34;3;2;
47741;PMS5003;33504;52.066;6.096;2022-10-03T03:05:22;4;3;
47741;PMS5003;33504;52.066;6.096;2022-10-03T03:08:07;7;6;
47741;PMS5003;33504;52.066;6.096;2022-10-03T03:10:58;6;4;
47741;PMS5003;33504;52.066;6.096;2022-10-03T03:13:44;5;4;
47741;PMS5003;33504;52.066;6.096;2022-10-03T03:16:35;9;8;
47741;PMS5003;33504;52.066;6.096;2022-10-03T03:19:22;5;4;
47741;PMS5003;33504;52.066;6.096;2022-10-03T03:22:06;7;7;
47741;PMS5003;33504;52.066;6.096;2022-10-03T03:24:48;4;3;
47741;PMS5003;33504;52.066;6.096;2022-10-03T03:27:29;4;3;
47741;PMS5003;33504;52.066;6.096;2022-10-03T03:30:04;5;4;
47741;PMS5003;33504;52.066;6.096;2022-10-03T03:32:39;5;4;
47741;PMS5003;33504;52.066;6.096;2022-10-03T03:35:19;4;4;
47741;PMS5003;33504;52.066;6.096;2022-10-03T03:37:56;5;5;
47741;PMS5003;33504;52.066;6.096;2022-10-03T03:40:39;5;4;
47741;PMS5003;33504;52.066;6.096;2022-10-03T03:43:22;5;5;
47741;PMS5003;33504;52.066;6.096;2022-10-03T03:46:05;4;4;
47741;PMS5003;33504;52.066;6.096;2022-10-03T03:48:56;5;4;
47741;PMS5003;33504;52.066;6.096;2022-10-03T03:51:31;7;5;
47741;PMS5003;33504;52.066;6.096;2022-10-03T03:54:49;3;3;
47741;PMS5003;33504;52.066;6.096;2022-10-03T03:57:33;3;2;
47741;PMS5003;33504;52.066;6.096;2022-10-03T04:00:27;4;3;
47741;PMS5003;33504;52.066;6.096;2022-10-03T04:03:07;4;3;
47741;PMS5003;33504;52.066;6.096;2022-10-03T04:05:50;5;5;
47741;PMS5003;33504;52.066;6.096;2022-10-03T04:08:32;4;4;
47741;PMS5003;33504;52.066;6.096;2022-10-03T04:11:16;5;5;
47741;PMS5003;33504;52.066;6.096;2022-10-03T04:13:57;3;3;
47741;PMS5003;33504;52.066;6.096;2022-10-03T04:16:47;3;3;
47741;PMS5003;33504;52.066;6.096;2022-10-03T04:19:27;6;5;
47741;PMS5003;33504;52.066;6.096;2022-10-03T04:22:07;6;4;
47741;PMS5003;33504;52.066;6.096;2022-10-03T04:24:50;4;4;
47741;PMS5003;33504;52.066;6.096;2022-10-03T04:27:31;4;3;
47741;PMS5003;33504;52.066;6.096;2022-10-03T04:30:12;3;3;
47741;PMS5003;33504;52.066;6.096;2022-10-03T04:32:51;4;3;
47741;PMS5003;33504;52.066;6.096;2022-10-03T04:35:32;5;4;
47741;PMS5003;33504;52.066;6.096;2022-10-03T04:38:16;5;4;
47741;PMS5003;33504;52.066;6.096;2022-10-03T04:40:58;4;4;
47741;PMS5003;33504;52.066;6.096;2022-10-03T04:43:34;4;4;
47741;PMS5003;33504;52.066;6.096;2022-10-03T04:46:15;4;4;
47741;PMS5003;33504;52.066;6.096;2022-10-03T04:48:57;4;4;
47741;PMS5003;33504;52.066;6.096;2022-10-03T04:51:35;3;3;
47741;PMS5003;33504;52.066;6.096;2022-10-03T04:54:12;5;4;
47741;PMS5003;33504;52.066;6.096;2022-10-03T04:56:49;4;3;
47741;PMS5003;33504;52.066;6.096;2022-10-03T04:59:27;3;3;
47741;PMS5003;33504;52.066;6.096;2022-10-03T05:02:02;4;3;
47741;PMS5003;33504;52.066;6.096;2022-10-03T05:04:38;4;2;
47741;PMS5003;33504;52.066;6.096;2022-10-03T05:07:13;3;3;
47741;PMS5003;33504;52.066;6.096;2022-10-03T05:09:47;3;3;
47741;PMS5003;33504;52.066;6.096;2022-10-03T05:12:24;5;4;
47741;PMS5003;33504;52.066;6.096;2022-10-03T05:15:01;4;3;
47741;PMS5003;33504;52.066;6.096;2022-10-03T05:17:43;6;6;
47741;PMS5003;33504;52.066;6.096;2022-10-03T05:20:19;5;4;
47741;PMS5003;33504;52.066;6.096;2022-10-03T05:22:59;2;2;
47741;PMS5003;33504;52.066;6.096;2022-10-03T05:25:39;4;4;
47741;PMS5003;33504;52.066;6.096;2022-10-03T05:28:18;4;3;
47741;PMS5003;33504;52.066;6.096;2022-10-03T05:30:53;2;2;
47741;PMS5003;33504;52.066;6.096;2022-10-03T05:33:30;4;4;
47741;PMS5003;33504;52.066;6.096;2022-10-03T05:36:08;3;3;
47741;PMS5003;33504;52.066;6.096;2022-10-03T05:38:56;5;5;
47741;PMS5003;33504;52.066;6.096;2022-10-03T05:41:49;3;3;
47741;PMS5003;33504;52.066;6.096;2022-10-03T05:44:18;5;5;
47741;PMS5003;33504;52.066;6.096;2022-10-03T05:46:55;4;4;
47741;PMS5003;33504;52.066;6.096;2022-10-03T05:49:29;4;4;
47741;PMS5003;33504;52.066;6.096;2022-10-03T05:52:21;4;4;
47741;PMS5003;33504;52.066;6.096;2022-10-03T05:55:12;3;3;
47741;PMS5003;33504;52.066;6.096;2022-10-03T05:57:56;3;3;
47741;PMS5003;33504;52.066;6.096;2022-10-03T05:58:33;3;3;
47741;PMS5003;33504;52.066;6.096;2022-10-03T06:01:16;5;5;
47741;PMS5003;33504;52.066;6.096;2022-10-03T06:01:57;5;5;
47741;PMS5003;33504;52.066;6.096;2022-10-03T06:02:37;5;5;
47741;PMS5003;33504;52.066;6.096;2022-10-03T06:05:22;4;3;
47741;PMS5003;33504;52.066;6.096;2022-10-03T06:08:08;4;4;
47741;PMS5003;33504;52.066;6.096;2022-10-03T06:10:51;4;4;
47741;PMS5003;33504;52.066;6.096;2022-10-03T06:13:35;4;4;
47741;PMS5003;33504;52.066;6.096;2022-10-03T06:16:16;2;2;
47741;PMS5003;33504;52.066;6.096;2022-10-03T06:19:28;4;3;
47741;PMS5003;33504;52.066;6.096;2022-10-03T06:22:17;5;3;
47741;PMS5003;33504;52.066;6.096;2022-10-03T06:23:00;5;3;
47741;PMS5003;33504;52.066;6.096;2022-10-03T06:26:03;4;4;
47741;PMS5003;33504;52.066;6.096;2022-10-03T06:28:55;4;4;
47741;PMS5003;33504;52.066;6.096;2022-10-03T06:31:53;5;5;
47741;PMS5003;33504;52.066;6.096;2022-10-03T06:32:42;5;5;
47741;PMS5003;33504;52.066;6.096;2022-10-03T06:34:00;5;5;
47741;PMS5003;33504;52.066;6.096;2022-10-03T06:35:20;5;5;
47741;PMS5003;33504;52.066;6.096;2022-10-03T06:38:13;5;4;
47741;PMS5003;33504;52.066;6.096;2022-10-03T06:41:13;5;4;
47741;PMS5003;33504;52.066;6.096;2022-10-03T06:44:06;3;3;
47741;PMS5003;33504;52.066;6.096;2022-10-03T06:47:09;4;3;
47741;PMS5003;33504;52.066;6.096;2022-10-03T06:49:54;4;4;
47741;PMS5003;33504;52.066;6.096;2022-10-03T06:50:40;4;4;
47741;PMS5003;33504;52.066;6.096;2022-10-03T06:53:24;5;3;
47741;PMS5003;33504;52.066;6.096;2022-10-03T06:56:27;5;4;
47741;PMS5003;33504;52.066;6.096;2022-10-03T06:59:17;5;4;
47741;PMS5003;33504;52.066;6.096;2022-10-03T07:02:10;3;3;
47741;PMS5003;33504;52.066;6.096;2022-10-03T07:03:00;3;3;
47741;PMS5003;33504;52.066;6.096;2022-10-03T07:06:00;3;3;
47741;PMS5003;33504;52.066;6.096;2022-10-03T07:10:00;3;3;
47741;PMS5003;33504;52.066;6.096;2022-10-03T07:12:44;6;6;
47741;PMS5003;33504;52.066;6.096;2022-10-03T07:15:51;4;4;
47741;PMS5003;33504;52.066;6.096;2022-10-03T07:18:38;4;4;
47741;PMS5003;33504;52.066;6.096;2022-10-03T07:21:37;5;4;
47741;PMS5003;33504;52.066;6.096;2022-10-03T07:22:57;4;3;
47741;PMS5003;33504;52.066;6.096;2022-10-03T07:25:58;5;4;
47741;PMS5003;33504;52.066;6.096;2022-10-03T07:29:04;4;4;
47741;PMS5003;33504;52.066;6.096;2022-10-03T07:31:46;5;4;
47741;PMS5003;33504;52.066;6.096;2022-10-03T07:35:05;4;4;
47741;PMS5003;33504;52.066;6.096;2022-10-03T07:37:52;4;4;
47741;PMS5003;33504;52.066;6.096;2022-10-03T07:40:47;4;3;
47741;PMS5003;33504;52.066;6.096;2022-10-03T07:43:35;7;7;
47741;PMS5003;33504;52.066;6.096;2022-10-03T07:46:40;2;2;
47741;PMS5003;33504;52.066;6.096;2022-10-03T07:50:01;2;2;
47741;PMS5003;33504;52.066;6.096;2022-10-03T07:52:48;4;2;
47741;PMS5003;33504;52.066;6.096;2022-10-03T07:55:30;2;2;
47741;PMS5003;33504;52.066;6.096;2022-10-03T07:58:24;1;1;
47741;PMS5003;33504;52.066;6.096;2022-10-03T08:01:05;1;1;
47741;PMS5003;33504;52.066;6.096;2022-10-03T08:03:51;4;3;
47741;PMS5003;33504;52.066;6.096;2022-10-03T08:06:34;8;8;
47741;PMS5003;33504;52.066;6.096;2022-10-03T08:09:09;4;2;
47741;PMS5003;33504;52.066;6.096;2022-10-03T08:11:54;4;3;
47741;PMS5003;33504;52.066;6.096;2022-10-03T08:14:41;8;7;
47741;PMS5003;33504;52.066;6.096;2022-10-03T08:17:21;4;4;
47741;PMS5003;33504;52.066;6.096;2022-10-03T08:20:11;1;1;
47741;PMS5003;33504;52.066;6.096;2022-10-03T08:22:52;0;0;
47741;PMS5003;33504;52.066;6.096;2022-10-03T08:25:37;1;1;
47741;PMS5003;33504;52.066;6.096;2022-10-03T08:28:31;1;1;
47741;PMS5003;33504;52.066;6.096;2022-10-03T08:31:14;2;1;
47741;PMS5003;33504;52.066;6.096;2022-10-03T08:33:59;3;0;
47741;PMS5003;33504;52.066;6.096;2022-10-03T08:37:19;1;1;
47741;PMS5003;33504;52.066;6.096;2022-10-03T08:39:28;1;1;
47741;PMS5003;33504;52.066;6.096;2022-10-03T08:42:18;2;2;
47741;PMS5003;33504;52.066;6.096;2022-10-03T08:45:06;2;1;
47741;PMS5003;33504;52.066;6.096;2022-10-03T08:48:32;2;2;
47741;PMS5003;33504;52.066;6.096;2022-10-03T08:51:57;2;2;
47741;PMS5003;33504;52.066;6.096;2022-10-03T08:54:40;4;4;
47741;PMS5003;33504;52.066;6.096;2022-10-03T08:57:26;3;3;
47741;PMS5003;33504;52.066;6.096;2022-10-03T09:00:15;4;3;
47741;PMS5003;33504;52.066;6.096;2022-10-03T09:05:26;2;2;
47741;PMS5003;33504;52.066;6.096;2022-10-03T09:08:15;2;1;
47741;PMS5003;33504;52.066;6.096;2022-10-03T09:11:57;1;0;
47741;PMS5003;33504;52.066;6.096;2022-10-03T09:12:44;1;0;
47741;PMS5003;33504;52.066;6.096;2022-10-03T09:15:41;0;0;
47741;PMS5003;33504;52.066;6.096;2022-10-03T09:18:39;1;0;
47741;PMS5003;33504;52.066;6.096;2022-10-03T09:21:29;2;2;
47741;PMS5003;33504;52.066;6.096;2022-10-03T09:24:25;2;2;
47741;PMS5003;33504;52.066;6.096;2022-10-03T09:27:15;8;8;
47741;PMS5003;33504;52.066;6.096;2022-10-03T09:29:59;2;1;
47741;PMS5003;33504;52.066;6.096;2022-10-03T09:32:44;1;1;
47741;PMS5003;33504;52.066;6.096;2022-10-03T09:33:27;1;1;
47741;PMS5003;33504;52.066;6.096;2022-10-03T09:36:28;1;0;
47741;PMS5003;33504;52.066;6.096;2022-10-03T09:39:23;2;1;
47741;PMS5003;33504;52.066;6.096;2022-10-03T09:42:52;2;2;
47741;PMS5003;33504;52.066;6.096;2022-10-03T09:46:06;1;1;
47741;PMS5003;33504;52.066;6.096;2022-10-03T09:50:53;2;1;
47741;PMS5003;33504;52.066;6.096;2022-10-03T09:53:36;5;5;
47741;PMS5003;33504;52.066;6.096;2022-10-03T09:56:19;0;0;
47741;PMS5003;33504;52.066;6.096;2022-10-03T09:59:05;2;1;
47741;PMS5003;33504;52.066;6.096;2022-10-03T09:59:51;2;1;
47741;PMS5003;33504;52.066;6.096;2022-10-03T10:02:34;6;4;
47741;PMS5003;33504;52.066;6.096;2022-10-03T10:04:28;6;4;
47741;PMS5003;33504;52.066;6.096;2022-10-03T10:07:17;1;1;
47741;PMS5003;33504;52.066;6.096;2022-10-03T10:08:01;0;0;
47741;PMS5003;33504;52.066;6.096;2022-10-03T10:10:48;8;5;
47741;PMS5003;33504;52.066;6.096;2022-10-03T10:13:46;11;11;
47741;PMS5003;33504;52.066;6.096;2022-10-03T10:16:59;11;10;
47741;PMS5003;33504;52.066;6.096;2022-10-03T10:19:55;5;5;
47741;PMS5003;33504;52.066;6.096;2022-10-03T10:22:39;3;3;
47741;PMS5003;33504;52.066;6.096;2022-10-03T10:25:29;2;2;
47741;PMS5003;33504;52.066;6.096;2022-10-03T10:28:17;0;0;
47741;PMS5003;33504;52.066;6.096;2022-10-03T10:29:32;0;0;
47741;PMS5003;33504;52.066;6.096;2022-10-03T10:33:16;0;0;
47741;PMS5003;33504;52.066;6.096;2022-10-03T10:36:59;1;1;
47741;PMS5003;33504;52.066;6.096;2022-10-03T10:38:19;0;0;
47741;PMS5003;33504;52.066;6.096;2022-10-03T10:41:29;1;1;
47741;PMS5003;33504;52.066;6.096;2022-10-03T10:44:50;1;1;
47741;PMS5003;33504;52.066;6.096;2022-10-03T10:47:19;1;1;
47741;PMS5003;33504;52.066;6.096;2022-10-03T10:50:36;53;44;
47741;PMS5003;33504;52.066;6.096;2022-10-03T10:53:58;27;24;
47741;PMS5003;33504;52.066;6.096;2022-10-03T10:57:05;54;52;
47741;PMS5003;33504;52.066;6.096;2022-10-03T11:00:20;46;46;
47741;PMS5003;33504;52.066;6.096;2022-10-03T11:03:38;24;23;
47741;PMS5003;33504;52.066;6.096;2022-10-03T11:06:51;21;21;
47741;PMS5003;33504;52.066;6.096;2022-10-03T11:12:23;23;23;
47741;PMS5003;33504;52.066;6.096;2022-10-03T11:15:21;28;28;
47741;PMS5003;33504;52.066;6.096;2022-10-03T11:18:28;21;20;
47741;PMS5003;33504;52.066;6.096;2022-10-03T11:21:31;36;36;
47741;PMS5003;33504;52.066;6.096;2022-10-03T11:24:59;30;30;
47741;PMS5003;33504;52.066;6.096;2022-10-03T11:27:58;25;25;
47741;PMS5003;33504;52.066;6.096;2022-10-03T11:31:29;30;28;
47741;PMS5003;33504;52.066;6.096;2022-10-03T11:34:34;14;13;
47741;PMS5003;33504;52.066;6.096;2022-10-03T11:35:20;14;13;
47741;PMS5003;33504;52.066;6.096;2022-10-03T11:38:06;16;16;
47741;PMS5003;33504;52.066;6.096;2022-10-03T11:40:48;40;40;
47741;PMS5003;33504;52.066;6.096;2022-10-03T11:43:39;1;1;
47741;PMS5003;33504;52.066;6.096;2022-10-03T11:46:33;0;0;
47741;PMS5003;33504;52.066;6.096;2022-10-03T11:49:16;2;2;
47741;PMS5003;33504;52.066;6.096;2022-10-03T11:52:00;1;1;
47741;PMS5003;33504;52.066;6.096;2022-10-03T11:54:36;3;3;
47741;PMS5003;33504;52.066;6.096;2022-10-03T11:57:07;4;4;
47741;PMS5003;33504;52.066;6.096;2022-10-03T11:59:46;6;5;
47741;PMS5003;33504;52.066;6.096;2022-10-03T12:02:34;6;6;
47741;PMS5003;33504;52.066;6.096;2022-10-03T12:05:17;13;12;
47741;PMS5003;33504;52.066;6.096;2022-10-03T12:07:54;13;13;
47741;PMS5003;33504;52.066;6.096;2022-10-03T12:10:36;5;4;
47741;PMS5003;33504;52.066;6.096;2022-10-03T12:13:13;4;2;
47741;PMS5003;33504;52.066;6.096;2022-10-03T12:15:44;3;3;
47741;PMS5003;33504;52.066;6.096;2022-10-03T12:18:15;3;3;
47741;PMS5003;33504;52.066;6.096;2022-10-03T12:20:57;19;18;
47741;PMS5003;33504;52.066;6.096;2022-10-03T12:23:35;5;5;
47741;PMS5003;33504;52.066;6.096;2022-10-03T12:26:29;7;6;
47741;PMS5003;33504;52.066;6.096;2022-10-03T12:29:06;6;6;
47741;PMS5003;33504;52.066;6.096;2022-10-03T12:31:39;4;3;
47741;PMS5003;33504;52.066;6.096;2022-10-03T12:34:18;3;3;
47741;PMS5003;33504;52.066;6.096;2022-10-03T12:37:02;5;4;
47741;PMS5003;33504;52.066;6.096;2022-10-03T12:39:42;2;2;
47741;PMS5003;33504;52.066;6.096;2022-10-03T12:42:22;2;2;
47741;PMS5003;33504;52.066;6.096;2022-10-03T12:44:55;2;1;
47741;PMS5003;33504;52.066;6.096;2022-10-03T12:47:28;2;2;
47741;PMS5003;33504;52.066;6.096;2022-10-03T12:50:10;3;3;
47741;PMS5003;33504;52.066;6.096;2022-10-03T12:52:55;1;1;
47741;PMS5003;33504;52.066;6.096;2022-10-03T12:55:40;2;2;
47741;PMS5003;33504;52.066;6.096;2022-10-03T12:58:22;3;2;
47741;PMS5003;33504;52.066;6.096;2022-10-03T13:01:02;1;1;
47741;PMS5003;33504;52.066;6.096;2022-10-03T13:03:39;2;2;
47741;PMS5003;33504;52.066;6.096;2022-10-03T13:06:28;2;2;
47741;PMS5003;33504;52.066;6.096;2022-10-03T13:09:10;2;2;
47741;PMS5003;33504;52.066;6.096;2022-10-03T13:11:52;3;3;
47741;PMS5003;33504;52.066;6.096;2022-10-03T13:14:31;4;4;
47741;PMS5003;33504;52.066;6.096;2022-10-03T13:17:14;5;5;
47741;PMS5003;33504;52.066;6.096;2022-10-03T13:19:52;4;4;
47741;PMS5003;33504;52.066;6.096;2022-10-03T13:22:27;3;3;
47741;PMS5003;33504;52.066;6.096;2022-10-03T13:25:01;6;6;
47741;PMS5003;33504;52.066;6.096;2022-10-03T13:27:34;4;3;
47741;PMS5003;33504;52.066;6.096;2022-10-03T13:30:12;1;1;
47741;PMS5003;33504;52.066;6.096;2022-10-03T13:32:45;2;2;
47741;PMS5003;33504;52.066;6.096;2022-10-03T13:35:18;3;2;
47741;PMS5003;33504;52.066;6.096;2022-10-03T13:37:57;3;2;
47741;PMS5003;33504;52.066;6.096;2022-10-03T13:40:50;3;2;
47741;PMS5003;33504;52.066;6.096;2022-10-03T13:43:25;1;1;
47741;PMS5003;33504;52.066;6.096;2022-10-03T13:45:57;1;1;
47741;PMS5003;33504;52.066;6.096;2022-10-03T13:48:26;2;1;
47741;PMS5003;33504;52.066;6.096;2022-10-03T13:50:54;3;2;
47741;PMS5003;33504;52.066;6.096;2022-10-03T13:53:37;1;1;
47741;PMS5003;33504;52.066;6.096;2022-10-03T13:56:16;2;2;
47741;PMS5003;33504;52.066;6.096;2022-10-03T13:58:58;2;2;
47741;PMS5003;33504;52.066;6.096;2022-10-03T14:01:38;1;1;
47741;PMS5003;33504;52.066;6.096;2022-10-03T14:04:21;5;5;
47741;PMS5003;33504;52.066;6.096;2022-10-03T14:07:06;3;3;
47741;PMS5003;33504;52.066;6.096;2022-10-03T14:09:50;3;3;
47741;PMS5003;33504;52.066;6.096;2022-10-03T14:12:35;1;1;
47741;PMS5003;33504;52.066;6.096;2022-10-03T14:15:16;2;2;
47741;PMS5003;33504;52.066;6.096;2022-10-03T14:17:50;2;1;
47741;PMS5003;33504;52.066;6.096;2022-10-03T14:20:28;1;1;
47741;PMS5003;33504;52.066;6.096;2022-10-03T14:23:09;3;3;
47741;PMS5003;33504;52.066;6.096;2022-10-03T14:25:46;2;2;
47741;PMS5003;33504;52.066;6.096;2022-10-03T14:28:24;7;7;
47741;PMS5003;33504;52.066;6.096;2022-10-03T14:30:58;3;3;
47741;PMS5003;33504;52.066;6.096;2022-10-03T14:33:32;2;2;
47741;PMS5003;33504;52.066;6.096;2022-10-03T14:36:09;2;2;
47741;PMS5003;33504;52.066;6.096;2022-10-03T14:38:50;3;3;
47741;PMS5003;33504;52.066;6.096;2022-10-03T14:41:33;3;2;
47741;PMS5003;33504;52.066;6.096;2022-10-03T14:44:07;2;2;
47741;PMS5003;33504;52.066;6.096;2022-10-03T14:46:38;3;1;
47741;PMS5003;33504;52.066;6.096;2022-10-03T14:49:15;2;2;
47741;PMS5003;33504;52.066;6.096;2022-10-03T14:51:46;3;1;
47741;PMS5003;33504;52.066;6.096;2022-10-03T14:54:18;2;2;
47741;PMS5003;33504;52.066;6.096;2022-10-03T14:56:48;2;2;
47741;PMS5003;33504;52.066;6.096;2022-10-03T14:59:18;2;2;
47741;PMS5003;33504;52.066;6.096;2022-10-03T15:01:49;4;4;
47741;PMS5003;33504;52.066;6.096;2022-10-03T15:04:22;3;3;
47741;PMS5003;33504;52.066;6.096;2022-10-03T15:06:55;3;3;
47741;PMS5003;33504;52.066;6.096;2022-10-03T15:09:24;2;2;
47741;PMS5003;33504;52.066;6.096;2022-10-03T15:11:57;4;2;
47741;PMS5003;33504;52.066;6.096;2022-10-03T15:14:28;3;3;
47741;PMS5003;33504;52.066;6.096;2022-10-03T15:17:00;5;5;
47741;PMS5003;33504;52.066;6.096;2022-10-03T15:19:31;3;3;
47741;PMS5003;33504;52.066;6.096;2022-10-03T15:22:05;3;3;
47741;PMS5003;33504;52.066;6.096;2022-10-03T15:24:43;4;3;
47741;PMS5003;33504;52.066;6.096;2022-10-03T15:27:13;2;2;
47741;PMS5003;33504;52.066;6.096;2022-10-03T15:29:44;2;2;
47741;PMS5003;33504;52.066;6.096;2022-10-03T15:32:18;2;2;
47741;PMS5003;33504;52.066;6.096;2022-10-03T15:34:48;2;2;
47741;PMS5003;33504;52.066;6.096;2022-10-03T15:37:23;3;3;
47741;PMS5003;33504;52.066;6.096;2022-10-03T15:39:51;4;2;
47741;PMS5003;33504;52.066;6.096;2022-10-03T15:42:27;4;3;
47741;PMS5003;33504;52.066;6.096;2022-10-03T15:44:57;2;2;
47741;PMS5003;33504;52.066;6.096;2022-10-03T15:47:27;7;7;
47741;PMS5003;33504;52.066;6.096;2022-10-03T15:49:57;7;7;
47741;PMS5003;33504;52.066;6.096;2022-10-03T15:52:30;7;6;
47741;PMS5003;33504;52.066;6.096;2022-10-03T15:55:02;6;6;
47741;PMS5003;33504;52.066;6.096;2022-10-03T15:57:32;4;4;
47741;PMS5003;33504;52.066;6.096;2022-10-03T16:00:04;4;3;
47741;PMS5003;33504;52.066;6.096;2022-10-03T16:02:33;5;4;
47741;PMS5003;33504;52.066;6.096;2022-10-03T16:05:04;6;6;
47741;PMS5003;33504;52.066;6.096;2022-10-03T16:07:40;8;8;
47741;PMS5003;33504;52.066;6.096;2022-10-03T16:10:17;10;10;
47741;PMS5003;33504;52.066;6.096;2022-10-03T16:12:53;12;12;
47741;PMS5003;33504;52.066;6.096;2022-10-03T16:15:25;14;14;
47741;PMS5003;33504;52.066;6.096;2022-10-03T16:18:04;16;15;
47741;PMS5003;33504;52.066;6.096;2022-10-03T16:20:38;21;21;
47741;PMS5003;33504;52.066;6.096;2022-10-03T16:23:09;26;25;
47741;PMS5003;33504;52.066;6.096;2022-10-03T16:25:43;32;32;
47741;PMS5003;33504;52.066;6.096;2022-10-03T16:28:16;24;23;
47741;PMS5003;33504;52.066;6.096;2022-10-03T16:30:46;15;14;
47741;PMS5003;33504;52.066;6.096;2022-10-03T16:33:19;16;16;
47741;PMS5003;33504;52.066;6.096;2022-10-03T16:35:51;38;38;
47741;PMS5003;33504;52.066;6.096;2022-10-03T16:38:23;18;18;
47741;PMS5003;33504;52.066;6.096;2022-10-03T16:40:53;33;32;
47741;PMS5003;33504;52.066;6.096;2022-10-03T16:43:22;14;13;
47741;PMS5003;33504;52.066;6.096;2022-10-03T16:45:50;16;16;
47741;PMS5003;33504;52.066;6.096;2022-10-03T16:48:20;14;14;
47741;PMS5003;33504;52.066;6.096;2022-10-03T16:50:50;40;38;
47741;PMS5003;33504;52.066;6.096;2022-10-03T16:53:18;18;18;
47741;PMS5003;33504;52.066;6.096;2022-10-03T16:55:47;21;20;
47741;PMS5003;33504;52.066;6.096;2022-10-03T16:58:19;6;6;
47741;PMS5003;33504;52.066;6.096;2022-10-03T17:00:52;6;5;
47741;PMS5003;33504;52.066;6.096;2022-10-03T17:03:25;6;5;
47741;PMS5003;33504;52.066;6.096;2022-10-03T17:05:57;4;4;
47741;PMS5003;33504;52.066;6.096;2022-10-03T17:08:26;5;4;
47741;PMS5003;33504;52.066;6.096;2022-10-03T17:10:57;5;5;
47741;PMS5003;33504;52.066;6.096;2022-10-03T17:13:27;5;3;
47741;PMS5003;33504;52.066;6.096;2022-10-03T17:16:02;2;2;
47741;PMS5003;33504;52.066;6.096;2022-10-03T17:18:36;5;5;
47741;PMS5003;33504;52.066;6.096;2022-10-03T17:21:10;6;6;
47741;PMS5003;33504;52.066;6.096;2022-10-03T17:23:48;9;8;
47741;PMS5003;33504;52.066;6.096;2022-10-03T17:26:27;7;6;
47741;PMS5003;33504;52.066;6.096;2022-10-03T17:29:02;10;9;
47741;PMS5003;33504;52.066;6.096;2022-10-03T17:31:37;9;9;
47741;PMS5003;33504;52.066;6.096;2022-10-03T17:34:10;11;11;
47741;PMS5003;33504;52.066;6.096;2022-10-03T17:36:48;20;19;
47741;PMS5003;33504;52.066;6.096;2022-10-03T17:39:36;18;18;
47741;PMS5003;33504;52.066;6.096;2022-10-03T17:42:13;24;24;
47741;PMS5003;33504;52.066;6.096;2022-10-03T17:44:54;39;39;
47741;PMS5003;33504;52.066;6.096;2022-10-03T17:47:27;14;14;
47741;PMS5003;33504;52.066;6.096;2022-10-03T17:50:05;14;14;
47741;PMS5003;33504;52.066;6.096;2022-10-03T17:52:42;17;16;
47741;PMS5003;33504;52.066;6.096;2022-10-03T17:55:13;17;17;
47741;PMS5003;33504;52.066;6.096;2022-10-03T17:57:44;24;23;
47741;PMS5003;33504;52.066;6.096;2022-10-03T18:00:16;29;29;
47741;PMS5003;33504;52.066;6.096;2022-10-03T18:02:49;29;29;
47741;PMS5003;33504;52.066;6.096;2022-10-03T18:05:21;43;42;
47741;PMS5003;33504;52.066;6.096;2022-10-03T18:07:53;56;55;
47741;PMS5003;33504;52.066;6.096;2022-10-03T18:10:22;49;49;
47741;PMS5003;33504;52.066;6.096;2022-10-03T18:12:52;19;18;
47741;PMS5003;33504;52.066;6.096;2022-10-03T18:15:25;13;13;